rmkの評判・口コミは?世間の声をまとめてみた

rmkとは

rmkの話題・口コミ

【交換・譲渡】ときレス ピューロ ライブ チケット 譲) 2/11①シナモ 1枚(GC先行) 整理番号50番以内 求) 定価 当方と連番のうちの1枚ですが同行でなくて構いません。 お日にち近いため都内手渡しか現地手渡し希望です。 検索からでもお気軽にお声がけください。 よろしくお願い致します。

ウッドクリップ懐かしいね😳❣️

全然検索してないのにコスメ好きだからか知らんが渡辺翔太さんのコスメストックがおすすめに出てきて思わず見た(笑)RMKのストックすごいな(笑)オイル私も好きで使ったりする!

久しぶりにキンブレだ…色変えるの大変だけど頑張るしか()

@635_rmk #世界のびっくりするほどコンパクトな国 ほぼ金沢市の広さの国は⁉ ダイビングのメッカの『 #パラオ 』🤩💕 世界遺産の海🏝へJTBのツアーで行ってみるのはいかがですか? パラオ→bit.ly/2TAtp7v 金沢(石川)→bit.ly/2G7NSZa

test ツイッターメディア - @635_rmk #世界のびっくりするほどコンパクトな国
ほぼ金沢市の広さの国は⁉
ダイビングのメッカの『 #パラオ 』🤩💕
世界遺産の海🏝へJTBのツアーで行ってみるのはいかがですか?

パラオ→https://t.co/qvBj3c2WJt
金沢(石川)→https://t.co/j794zz5AuE https://t.co/0psyeL4F8n

やーーーっと!!😳😳❣️

YSLもRMKもMACも結局人にあげてるんだから!古いのあげて新しいの買うのやめよ!!! は〜DECORTÉのパウダー欲しい〜!!!

今は自分で塗ってないので説得力薄いんですが、RMKの26(sh)自分で塗ってた頃一番出番多かった色だからダイマさせて…。グリッターの粒度が地味すぎず派手過ぎず、クリアベースでフレンチにすると華がありつつカジュアルにも対応できてすごく使えるシルバー。今でもたまに塗りたいって思う色。

@tamariechamo ドコモユーザーならdカードかなぁ🤔楽天もいいと思うけど…

RJFF 270416Z 05013G23KT 360V080 9999 -SHRA FEW005 BKN015 BKN020 FEW025CB 08/06 Q1004 RMK 1ST005 5CU015 6CU020 1CB025 A2967 CB 15KM N MOV NE P/FR 福岡空港13時16分 雷雲が空港の北15kmにあって北東に移動中 観測時点までの30分以内に1hPa超過の気圧降下が観測されました

@syokuyoku_mugen 私はアスタリフト…ですかね•́_•̀٥ 後はRMKは良かったです(;▽;)

おしゃれな人に怖いくらいに褒められまくる! リピートが止まらない、#RMK の革新的ベージュリップ💄✨ lnky.jp/gmWSAzX

RMKの新作春ネイルは、スポーティな色合いのものが登場💅💙 💚 buff.ly/2RgR0XY

test ツイッターメディア - RMKの新作春ネイルは、スポーティな色合いのものが登場💅💙 💚 
https://t.co/512OXOCXdN https://t.co/yNRgiJpOVh